createdAt,value
2023-02-19T00:00:01.005Z,79.50
2023-02-19T00:02:29.511Z,79.93
2023-02-19T00:04:59.755Z,79.74
2023-02-19T00:07:31.990Z,79.34
2023-02-19T00:09:59.764Z,79.75
2023-02-19T00:12:29.041Z,79.42
2023-02-19T00:15:07.067Z,79.58
2023-02-19T00:17:40.931Z,79.34
2023-02-19T00:20:09.408Z,79.73
2023-02-19T00:22:38.716Z,79.48
2023-02-19T00:25:07.343Z,79.54
2023-02-19T00:27:37.253Z,79.43
2023-02-19T00:30:07.925Z,79.46
2023-02-19T00:32:35.817Z,79.44
2023-02-19T00:35:04.479Z,79.47
2023-02-19T00:37:35.489Z,79.57
2023-02-19T00:40:17.585Z,79.64
2023-02-19T00:42:48.241Z,79.78
2023-02-19T00:45:22.607Z,79.67
2023-02-19T00:47:57.361Z,79.83
2023-02-19T00:50:33.265Z,79.75
2023-02-19T00:53:01.263Z,79.84
2023-02-19T00:55:31.670Z,79.87
2023-02-19T00:57:59.384Z,79.69
2023-02-19T01:06:43.872Z,80.06
2023-02-19T01:09:20.575Z,80.02
2023-02-19T01:12:12.120Z,79.98
2023-02-19T01:15:11.853Z,80.25
2023-02-19T01:17:56.297Z,80.25
2023-02-19T01:21:23.134Z,80.21
2023-02-19T01:24:14.016Z,80.55
2023-02-19T01:27:02.378Z,80.46
2023-02-19T01:29:43.987Z,80.33
2023-02-19T01:32:13.080Z,80.37
2023-02-19T01:34:40.801Z,80.43
2023-02-19T01:37:12.238Z,80.39
2023-02-19T01:39:40.140Z,80.40
2023-02-19T01:42:14.322Z,80.35
2023-02-19T01:44:45.373Z,80.40
2023-02-19T01:58:46.476Z,80.54
2023-02-19T02:20:35.973Z,80.88
2023-02-19T02:23:03.759Z,80.79
2023-02-19T02:26:16.238Z,80.86
2023-02-19T02:29:27.206Z,80.98
2023-02-19T02:32:20.192Z,81.04
2023-02-19T03:24:33.654Z,81.31
2023-02-19T03:27:02.910Z,81.25
2023-02-19T03:29:32.723Z,81.46
2023-02-19T03:32:09.036Z,81.57
2023-02-19T03:34:54.783Z,81.66
2023-02-19T03:37:27.498Z,81.53
2023-02-19T03:39:55.598Z,81.15
2023-02-19T03:42:40.006Z,81.55
2023-02-19T03:45:26.954Z,81.53
2023-02-19T03:48:07.039Z,81.31
2023-02-19T03:51:01.219Z,81.59
2023-02-19T03:54:09.249Z,81.59
2023-02-19T03:57:25.203Z,81.67
2023-02-19T04:00:19.049Z,81.70
2023-02-19T04:03:48.491Z,81.70
2023-02-19T04:07:17.252Z,81.44
2023-02-19T04:14:30.229Z,81.71
2023-02-19T05:12:02.614Z,81.86
2023-02-19T05:14:30.521Z,81.98
2023-02-19T05:17:01.726Z,81.77
2023-02-19T05:19:29.747Z,81.61
2023-02-19T05:21:57.842Z,81.76
2023-02-19T05:24:26.817Z,81.89
2023-02-19T05:26:54.836Z,81.64
2023-02-19T05:29:22.800Z,81.96
2023-02-19T05:31:50.682Z,81.69
2023-02-19T05:34:18.428Z,81.75
2023-02-19T05:36:46.492Z,81.86
2023-02-19T05:39:14.422Z,81.60
2023-02-19T05:41:42.243Z,81.59
2023-02-19T05:44:11.266Z,81.57
2023-02-19T05:46:39.052Z,81.91
2023-02-19T05:49:07.026Z,81.64
2023-02-19T05:51:34.965Z,81.71
2023-02-19T05:54:02.925Z,81.55
2023-02-19T05:56:38.611Z,81.67
2023-02-19T05:59:21.490Z,81.47
2023-02-19T06:01:51.604Z,81.73
2023-02-19T06:04:20.603Z,81.81
2023-02-19T06:06:49.144Z,81.73
2023-02-19T06:09:17.065Z,81.47
2023-02-19T06:11:45.159Z,81.68
2023-02-19T06:14:14.100Z,81.65
2023-02-19T06:16:41.920Z,81.59
2023-02-19T06:19:10.218Z,81.42
2023-02-19T06:21:37.983Z,81.67
2023-02-19T06:24:07.588Z,81.79
2023-02-19T06:30:37.003Z,81.75
2023-02-19T06:33:17.302Z,81.70
2023-02-19T06:39:02.376Z,81.79
2023-02-19T06:41:37.670Z,81.87
2023-02-19T06:44:28.919Z,81.76
2023-02-19T06:47:02.871Z,82.00
2023-02-19T06:50:16.534Z,81.80
2023-02-19T06:53:08.856Z,81.98
2023-02-19T06:55:43.109Z,81.91
2023-02-19T06:58:38.107Z,81.58
2023-02-19T07:01:23.140Z,80.99
2023-02-19T07:04:37.312Z,81.32
2023-02-19T07:07:08.841Z,81.05
2023-02-19T08:20:25.431Z,79.43
2023-02-19T08:22:53.214Z,79.64
2023-02-19T08:25:20.936Z,79.39
2023-02-19T08:27:48.772Z,79.39
2023-02-19T08:30:16.656Z,79.37
2023-02-19T08:32:44.438Z,79.59
2023-02-19T08:35:12.413Z,79.56
2023-02-19T08:37:40.221Z,79.66
2023-02-19T08:40:08.700Z,79.14
2023-02-19T08:42:36.675Z,79.33
2023-02-19T08:45:05.494Z,79.33
2023-02-19T08:47:38.888Z,79.30
2023-02-19T08:50:16.498Z,79.28
2023-02-19T08:52:44.393Z,79.27
2023-02-19T08:55:13.125Z,79.51
2023-02-19T08:57:41.372Z,79.17
2023-02-19T09:00:12.079Z,79.10
2023-02-19T09:02:39.967Z,78.94
2023-02-19T09:05:07.955Z,78.94
2023-02-19T09:07:35.685Z,79.21
2023-02-19T09:10:16.172Z,79.25
2023-02-19T09:12:43.931Z,79.17
2023-02-19T09:15:12.390Z,79.34
2023-02-19T09:17:40.318Z,79.22
2023-02-19T09:20:08.776Z,79.19
2023-02-19T09:22:36.985Z,79.17
2023-02-19T09:25:05.144Z,79.07
2023-02-19T09:27:33.549Z,79.05
2023-02-19T09:30:01.437Z,79.08
2023-02-19T09:32:32.498Z,79.17
2023-02-19T09:35:00.362Z,79.41
2023-02-19T09:37:28.353Z,79.81
2023-02-19T09:39:56.228Z,79.50
2023-02-19T09:42:26.720Z,79.29
2023-02-19T09:44:56.243Z,79.72
2023-02-19T09:47:26.832Z,79.31
2023-02-19T09:51:44.625Z,79.42
2023-02-19T10:08:40.705Z,78.69
2023-02-19T10:15:01.332Z,78.77
2023-02-19T10:54:25.991Z,77.65
2023-02-19T10:56:54.622Z,77.63
2023-02-19T10:59:30.053Z,78.04
2023-02-19T11:09:53.740Z,77.95
2023-02-19T11:12:55.411Z,77.53
2023-02-19T11:23:01.927Z,76.07
2023-02-19T11:25:30.137Z,76.16
2023-02-19T11:27:58.016Z,76.09
2023-02-19T11:30:41.413Z,76.19
2023-02-19T11:33:29.100Z,76.14
2023-02-19T12:39:28.570Z,73.12
2023-02-19T12:42:12.128Z,73.15
2023-02-19T12:44:46.443Z,73.08
2023-02-19T12:47:38.351Z,72.77
2023-02-19T12:50:17.787Z,72.43
2023-02-19T12:52:50.147Z,71.91
2023-02-19T12:55:29.270Z,72.03
2023-02-19T12:58:01.521Z,71.95
2023-02-19T13:00:45.580Z,70.96
2023-02-19T13:03:23.206Z,70.53
2023-02-19T13:06:10.088Z,70.52
2023-02-19T13:09:05.481Z,70.24
2023-02-19T13:12:03.047Z,70.25
2023-02-19T13:14:41.495Z,70.01
2023-02-19T13:17:38.857Z,70.39
2023-02-19T13:20:32.443Z,69.77
2023-02-19T13:23:25.084Z,69.71
2023-02-19T13:26:17.987Z,69.78
2023-02-19T13:29:16.532Z,69.58
2023-02-19T13:31:53.552Z,69.50
2023-02-19T13:34:59.058Z,69.97
2023-02-19T13:37:27.367Z,70.47
2023-02-19T13:39:56.017Z,70.49
2023-02-19T13:42:31.754Z,70.57
2023-02-19T13:45:01.611Z,70.06
2023-02-19T13:47:54.632Z,69.73
2023-02-19T13:50:30.930Z,69.83
2023-02-19T13:53:00.442Z,69.21
2023-02-19T13:55:44.268Z,69.06
2023-02-19T13:59:06.501Z,69.20
2023-02-19T14:01:57.152Z,68.56
2023-02-19T14:04:43.781Z,68.70
2023-02-19T14:07:11.443Z,68.72
2023-02-19T14:09:43.896Z,69.02
2023-02-19T14:12:16.077Z,69.03
2023-02-19T14:14:45.191Z,68.30
2023-02-19T14:17:42.220Z,68.41
2023-02-19T14:20:10.026Z,67.92
2023-02-19T14:22:52.028Z,67.42
2023-02-19T14:25:32.191Z,67.65
2023-02-19T14:28:03.295Z,67.85
2023-02-19T14:30:33.636Z,67.59
2023-02-19T14:33:10.657Z,67.76
2023-02-19T14:35:45.866Z,67.71
2023-02-19T14:38:18.954Z,67.51
2023-02-19T14:40:48.087Z,67.66
2023-02-19T14:43:18.561Z,67.34
2023-02-19T14:45:59.364Z,67.34
2023-02-19T14:48:34.730Z,67.02
2023-02-19T14:51:07.139Z,67.10
2023-02-19T14:53:39.491Z,67.02
2023-02-19T14:56:21.010Z,67.17
2023-02-19T14:59:06.823Z,66.94
2023-02-19T15:01:34.758Z,67.13
2023-02-19T15:04:03.026Z,67.15
2023-02-19T15:06:31.817Z,67.36
2023-02-19T15:09:03.814Z,67.61
2023-02-19T15:11:32.787Z,67.24
2023-02-19T15:14:03.148Z,67.49
2023-02-19T15:16:32.779Z,67.80
2023-02-19T15:19:01.394Z,67.59
2023-02-19T15:21:32.334Z,67.44
2023-02-19T15:24:02.442Z,67.45
2023-02-19T15:26:35.972Z,67.60
2023-02-19T15:29:10.354Z,67.83
2023-02-19T15:31:52.325Z,67.54
2023-02-19T15:34:28.504Z,67.74
2023-02-19T15:37:02.742Z,67.38
2023-02-19T15:39:41.834Z,67.40
2023-02-19T15:42:17.091Z,67.32
2023-02-19T15:44:49.815Z,67.20
2023-02-19T15:47:28.753Z,66.83
2023-02-19T15:50:08.375Z,66.75
2023-02-19T15:52:50.779Z,66.77
2023-02-19T15:55:30.840Z,66.68
2023-02-19T15:58:23.012Z,66.65
2023-02-19T16:00:56.305Z,66.56
2023-02-19T16:03:27.976Z,66.77
2023-02-19T16:06:02.330Z,66.33
2023-02-19T16:08:35.916Z,66.56
2023-02-19T16:11:06.901Z,66.21
2023-02-19T16:13:35.820Z,66.17
2023-02-19T16:16:06.640Z,66.00
2023-02-19T16:18:35.223Z,65.96
2023-02-19T16:21:07.976Z,66.21
2023-02-19T16:23:36.175Z,66.42
2023-02-19T16:26:04.440Z,66.13
2023-02-19T16:28:37.367Z,66.44
2023-02-19T16:31:07.718Z,66.31
2023-02-19T16:33:38.100Z,66.43
2023-02-19T16:36:33.472Z,66.45
2023-02-19T16:39:07.481Z,66.45
2023-02-19T16:41:47.528Z,66.50
2023-02-19T16:44:21.697Z,66.33
2023-02-19T16:46:50.538Z,66.05
2023-02-19T16:49:18.506Z,66.17
2023-02-19T16:51:46.997Z,66.28
2023-02-19T16:54:15.080Z,66.37
2023-02-19T16:56:43.125Z,66.22
2023-02-19T16:59:11.007Z,66.18
2023-02-19T17:01:39.069Z,66.29
2023-02-19T17:04:09.745Z,66.15
2023-02-19T17:06:38.104Z,66.28
2023-02-19T17:09:07.411Z,66.20
2023-02-19T17:11:36.111Z,66.43
2023-02-19T17:14:04.322Z,66.23
2023-02-19T17:16:40.411Z,66.38
2023-02-19T17:19:20.029Z,66.32
2023-02-19T17:21:48.442Z,66.25
2023-02-19T17:24:16.674Z,66.12
2023-02-19T17:26:44.655Z,66.04
2023-02-19T17:29:15.306Z,66.05
2023-02-19T17:31:43.304Z,66.27
2023-02-19T17:34:11.566Z,66.26
2023-02-19T17:36:40.882Z,66.53
2023-02-19T17:39:15.187Z,66.25
2023-02-19T17:41:43.483Z,66.22
2023-02-19T17:44:11.859Z,65.98
2023-02-19T17:46:40.198Z,66.07
2023-02-19T17:49:10.775Z,66.31
2023-02-19T17:51:38.715Z,66.29
2023-02-19T17:54:08.343Z,66.12
2023-02-19T17:56:36.847Z,65.99
2023-02-19T17:59:07.073Z,66.10
2023-02-19T18:01:35.183Z,66.42
2023-02-19T18:04:04.624Z,66.12
2023-02-19T18:06:32.749Z,66.24
2023-02-19T18:09:00.906Z,66.22
2023-02-19T18:11:28.852Z,66.18
2023-02-19T18:13:56.960Z,65.99
2023-02-19T18:16:27.666Z,66.03
2023-02-19T18:18:57.718Z,65.89
2023-02-19T18:21:26.370Z,65.81
2023-02-19T18:23:54.155Z,65.69
2023-02-19T18:26:22.324Z,65.45
2023-02-19T18:28:50.312Z,65.81
2023-02-19T18:31:18.098Z,65.66
2023-02-19T18:33:46.377Z,65.68
2023-02-19T18:36:18.758Z,65.71
2023-02-19T18:39:00.408Z,65.74
2023-02-19T18:41:58.317Z,65.95
2023-02-19T18:44:36.785Z,65.70
2023-02-19T18:47:37.249Z,65.83
2023-02-19T18:51:03.980Z,65.65
2023-02-19T18:53:31.988Z,65.66
2023-02-19T18:56:01.995Z,65.89
2023-02-19T18:58:29.832Z,66.09
2023-02-19T19:00:59.674Z,65.65
2023-02-19T19:03:30.243Z,65.87
2023-02-19T19:05:59.254Z,66.04
2023-02-19T19:08:28.636Z,65.94
2023-02-19T19:10:58.017Z,65.88
2023-02-19T19:13:26.233Z,65.88
2023-02-19T19:15:54.210Z,65.70
2023-02-19T19:18:22.347Z,65.87
2023-02-19T19:20:50.684Z,65.89
2023-02-19T19:23:19.219Z,66.02
2023-02-19T19:25:47.319Z,66.04
2023-02-19T19:28:15.171Z,66.09
2023-02-19T19:30:43.271Z,66.17
2023-02-19T19:33:12.147Z,66.14
2023-02-19T19:35:41.923Z,65.90
2023-02-19T19:38:10.089Z,66.18
2023-02-19T19:40:38.292Z,66.05
2023-02-19T19:43:06.413Z,66.21
2023-02-19T19:45:34.484Z,66.57
2023-02-19T19:48:02.265Z,66.36
2023-02-19T19:50:30.753Z,66.27
2023-02-19T19:52:58.856Z,66.39
2023-02-19T19:55:27.677Z,66.23
2023-02-19T19:57:56.009Z,66.44
2023-02-19T20:00:24.515Z,66.54
2023-02-19T20:02:52.824Z,66.45
2023-02-19T20:05:21.239Z,66.15
2023-02-19T20:07:49.911Z,66.23
2023-02-19T20:10:19.737Z,65.99
2023-02-19T20:12:48.045Z,66.05
2023-02-19T20:15:21.986Z,66.13
2023-02-19T20:17:50.714Z,66.09
2023-02-19T20:20:19.144Z,66.17
2023-02-19T20:22:47.368Z,66.33
2023-02-19T20:25:16.290Z,66.37
2023-02-19T20:27:44.302Z,66.40
2023-02-19T20:30:14.574Z,66.61
2023-02-19T20:32:42.672Z,66.90
2023-02-19T20:35:10.823Z,66.71
2023-02-19T20:37:39.696Z,66.67
2023-02-19T20:40:38.837Z,66.96
2023-02-19T23:05:46.356Z,69.02
2023-02-19T23:15:05.489Z,69.04
2023-02-19T23:17:33.033Z,69.08
2023-02-19T23:19:59.488Z,69.05
2023-02-19T23:22:25.852Z,68.91
2023-02-19T23:24:52.407Z,69.11
2023-02-19T23:27:19.251Z,69.01
2023-02-19T23:29:46.443Z,69.22
2023-02-19T23:32:13.019Z,69.23
2023-02-19T23:34:39.447Z,69.39
2023-02-19T23:37:06.080Z,69.43
2023-02-19T23:39:33.899Z,69.59
2023-02-19T23:42:00.579Z,69.61
2023-02-19T23:44:27.204Z,69.60
2023-02-19T23:46:53.829Z,69.83
2023-02-19T23:58:21.222Z,69.78
